createdAt,value
2019-03-22T00:00:58.761Z,0
2019-03-22T00:02:00.165Z,0
2019-03-22T00:03:01.576Z,0
2019-03-22T00:04:02.965Z,0
2019-03-22T00:05:04.346Z,0
2019-03-22T00:06:05.745Z,0
2019-03-22T00:07:07.127Z,0
2019-03-22T00:08:08.540Z,0
2019-03-22T00:09:09.921Z,0
2019-03-22T00:10:11.301Z,0
2019-03-22T00:11:12.703Z,0
2019-03-22T00:12:14.094Z,0
2019-03-22T00:13:15.481Z,0
2019-03-22T00:14:16.879Z,0
2019-03-22T00:15:18.275Z,0
2019-03-22T00:16:19.679Z,0
2019-03-22T00:17:21.068Z,0
2019-03-22T00:18:22.478Z,0
2019-03-22T00:19:23.860Z,0
2019-03-22T00:20:25.250Z,0
2019-03-22T00:21:26.633Z,0
2019-03-22T00:22:28.029Z,0
2019-03-22T00:23:29.415Z,0
2019-03-22T00:24:30.813Z,0
2019-03-22T00:25:32.206Z,0
2019-03-22T00:26:33.596Z,0
2019-03-22T00:27:34.985Z,0
2019-03-22T00:28:36.389Z,0
2019-03-22T00:29:37.774Z,0
2019-03-22T00:30:39.164Z,0
2019-03-22T00:31:40.562Z,0
2019-03-22T00:32:41.962Z,0
2019-03-22T00:33:43.354Z,0
2019-03-22T00:34:44.749Z,0
2019-03-22T00:35:46.155Z,0
2019-03-22T00:36:47.543Z,0
2019-03-22T00:37:48.943Z,0
2019-03-22T00:38:50.337Z,0
2019-03-22T00:39:51.719Z,0
2019-03-22T00:40:53.120Z,0
2019-03-22T00:41:54.503Z,0
2019-03-22T00:42:55.891Z,0
2019-03-22T00:43:57.280Z,0
2019-03-22T00:44:58.667Z,0
2019-03-22T00:46:00.058Z,0
2019-03-22T00:47:01.454Z,0
2019-03-22T00:48:02.858Z,0
2019-03-22T00:49:04.240Z,0
2019-03-22T00:50:05.636Z,0
2019-03-22T00:51:07.024Z,0
2019-03-22T00:52:08.406Z,0
2019-03-22T00:53:09.794Z,0
2019-03-22T00:54:11.188Z,0
2019-03-22T00:55:12.576Z,0
2019-03-22T00:56:13.967Z,0
2019-03-22T00:57:15.352Z,0
2019-03-22T00:58:16.745Z,0
2019-03-22T00:59:18.128Z,0
2019-03-22T01:00:19.525Z,0
2019-03-22T01:01:20.907Z,0
2019-03-22T01:02:22.301Z,0
2019-03-22T01:03:23.681Z,0
2019-03-22T01:04:25.082Z,0
2019-03-22T01:05:26.520Z,0
2019-03-22T01:06:27.815Z,0
2019-03-22T01:07:29.215Z,0
2019-03-22T01:08:30.610Z,0
2019-03-22T01:09:32.016Z,0
2019-03-22T01:10:33.406Z,0
2019-03-22T01:11:34.791Z,0
2019-03-22T01:12:36.197Z,0
2019-03-22T01:13:37.582Z,0
2019-03-22T01:14:38.974Z,0
2019-03-22T01:15:40.358Z,0
2019-03-22T01:16:41.756Z,0
2019-03-22T01:17:43.136Z,0
2019-03-22T01:18:44.538Z,0
2019-03-22T01:19:45.922Z,0
2019-03-22T01:20:47.310Z,0
2019-03-22T01:21:48.704Z,0
2019-03-22T01:22:50.087Z,0
2019-03-22T01:23:51.498Z,0
2019-03-22T01:24:52.893Z,0
2019-03-22T01:25:54.288Z,0
2019-03-22T01:26:55.686Z,0
2019-03-22T01:27:57.079Z,0
2019-03-22T01:28:58.462Z,0
2019-03-22T01:29:59.857Z,0
2019-03-22T01:31:01.259Z,0
2019-03-22T01:32:02.647Z,0
2019-03-22T01:33:04.038Z,0
2019-03-22T01:34:05.435Z,0
2019-03-22T01:35:06.828Z,0
2019-03-22T01:36:08.211Z,0
2019-03-22T01:37:09.610Z,0
2019-03-22T01:38:11.019Z,0
2019-03-22T01:39:12.416Z,0
2019-03-22T01:40:13.820Z,0
2019-03-22T01:41:15.209Z,0
2019-03-22T01:42:16.617Z,0
2019-03-22T01:43:18.009Z,0
2019-03-22T01:44:19.396Z,0
2019-03-22T01:45:20.788Z,0
2019-03-22T01:46:22.176Z,0
2019-03-22T01:47:23.567Z,0
2019-03-22T01:48:24.957Z,0
2019-03-22T01:49:26.346Z,0
2019-03-22T01:50:27.751Z,0
2019-03-22T01:51:29.136Z,0
2019-03-22T01:52:30.516Z,0
2019-03-22T01:53:31.911Z,0
2019-03-22T01:54:33.293Z,0
2019-03-22T01:55:34.676Z,0
2019-03-22T01:56:36.066Z,0
2019-03-22T01:57:37.458Z,0
2019-03-22T01:58:38.855Z,0
2019-03-22T01:59:40.237Z,0
2019-03-22T02:00:41.637Z,0
2019-03-22T02:01:43.021Z,0
2019-03-22T02:02:44.415Z,0
2019-03-22T02:03:45.807Z,0
2019-03-22T02:04:47.193Z,0
2019-03-22T02:05:48.585Z,0
2019-03-22T02:06:49.973Z,0
2019-03-22T02:07:51.359Z,0
2019-03-22T02:08:52.749Z,0
2019-03-22T02:09:54.145Z,0
2019-03-22T02:10:55.536Z,0
2019-03-22T02:11:56.914Z,0
2019-03-22T02:12:58.311Z,0
2019-03-22T02:13:59.704Z,0
2019-03-22T02:15:01.091Z,0
2019-03-22T02:16:02.479Z,0
2019-03-22T02:17:03.866Z,0
2019-03-22T02:18:05.260Z,0
2019-03-22T02:19:06.662Z,0
2019-03-22T02:20:08.065Z,0
2019-03-22T02:21:09.470Z,0
2019-03-22T02:22:10.862Z,0
2019-03-22T02:23:12.245Z,0
2019-03-22T02:24:13.647Z,0
2019-03-22T02:25:15.032Z,0
2019-03-22T02:26:16.429Z,0
2019-03-22T02:27:17.809Z,0
2019-03-22T02:28:19.197Z,0
2019-03-22T02:29:20.591Z,0
2019-03-22T02:30:21.980Z,0
2019-03-22T02:31:23.365Z,0
2019-03-22T02:32:24.759Z,0
2019-03-22T02:33:26.150Z,0
2019-03-22T02:34:27.542Z,0
2019-03-22T02:35:29.696Z,0
2019-03-22T02:36:30.322Z,0
2019-03-22T02:37:31.683Z,0
2019-03-22T02:38:33.090Z,0
2019-03-22T02:39:34.556Z,0
2019-03-22T02:40:35.861Z,0
2019-03-22T02:41:37.243Z,0
2019-03-22T02:42:38.645Z,0
2019-03-22T02:43:40.084Z,0
2019-03-22T02:44:41.459Z,0
2019-03-22T02:45:42.856Z,0
2019-03-22T02:46:44.234Z,0
2019-03-22T02:47:45.631Z,0
2019-03-22T02:48:47.027Z,0
2019-03-22T02:49:48.421Z,0
2019-03-22T02:50:49.808Z,0
2019-03-22T02:51:51.199Z,0
2019-03-22T02:52:52.584Z,0
2019-03-22T02:53:53.997Z,0
2019-03-22T02:54:55.373Z,0
2019-03-22T02:55:56.768Z,0
2019-03-22T02:56:58.110Z,0
2019-03-22T02:57:59.503Z,0
2019-03-22T02:59:00.910Z,0
2019-03-22T03:00:02.296Z,0
2019-03-22T03:01:03.709Z,0
2019-03-22T03:02:05.085Z,0
2019-03-22T03:03:06.473Z,0
2019-03-22T03:04:07.872Z,0
2019-03-22T03:05:09.269Z,0
2019-03-22T03:06:10.650Z,0
2019-03-22T03:07:12.050Z,0
2019-03-22T03:08:13.440Z,0
2019-03-22T03:09:14.830Z,0
2019-03-22T03:10:16.218Z,0
2019-03-22T03:11:17.614Z,0
2019-03-22T03:12:19.004Z,0
2019-03-22T03:13:20.390Z,0
2019-03-22T03:14:21.774Z,0
2019-03-22T03:15:23.166Z,0
2019-03-22T03:16:24.563Z,0
2019-03-22T03:17:25.963Z,0
2019-03-22T03:18:27.372Z,0
2019-03-22T03:19:28.738Z,0
2019-03-22T03:20:30.137Z,0
2019-03-22T03:21:31.526Z,0
2019-03-22T03:22:32.926Z,0
2019-03-22T03:23:34.314Z,0
2019-03-22T03:24:35.712Z,0
2019-03-22T03:25:37.100Z,0
2019-03-22T03:26:38.482Z,0
2019-03-22T03:27:39.878Z,0
2019-03-22T03:28:41.269Z,0
2019-03-22T03:29:42.662Z,0
2019-03-22T03:30:44.062Z,0
2019-03-22T03:31:45.450Z,0
2019-03-22T03:32:46.849Z,0
2019-03-22T03:33:48.248Z,0
2019-03-22T03:34:49.629Z,0
2019-03-22T03:35:51.114Z,0
2019-03-22T03:36:52.382Z,0
2019-03-22T03:37:53.877Z,0
2019-03-22T03:38:55.123Z,0
2019-03-22T03:39:56.527Z,0
2019-03-22T03:40:57.909Z,0
2019-03-22T03:41:59.309Z,0
2019-03-22T03:43:00.702Z,0
2019-03-22T03:44:02.096Z,0
2019-03-22T03:45:03.511Z,0
2019-03-22T03:46:04.879Z,0
2019-03-22T03:47:10.029Z,0
2019-03-22T03:48:07.607Z,0
2019-03-22T03:49:08.993Z,0
2019-03-22T03:50:10.382Z,0
2019-03-22T03:51:11.785Z,0
2019-03-22T03:52:13.178Z,0
2019-03-22T03:53:14.572Z,0
2019-03-22T03:54:15.964Z,0
2019-03-22T03:55:17.358Z,0
2019-03-22T03:56:18.744Z,0
2019-03-22T03:57:20.165Z,0
2019-03-22T03:58:21.550Z,0
2019-03-22T03:59:22.942Z,0
2019-03-22T04:00:24.337Z,0
2019-03-22T04:01:25.723Z,0
2019-03-22T04:02:27.128Z,0
2019-03-22T04:03:28.521Z,0
2019-03-22T04:04:29.903Z,0
2019-03-22T04:05:31.316Z,0
2019-03-22T04:06:32.702Z,0
2019-03-22T04:07:34.109Z,0
2019-03-22T04:08:35.499Z,0
2019-03-22T04:09:36.880Z,0
2019-03-22T04:10:38.277Z,0
2019-03-22T04:11:39.715Z,0
2019-03-22T04:12:41.009Z,0
2019-03-22T04:13:42.405Z,0
2019-03-22T04:14:43.796Z,0
2019-03-22T04:15:45.186Z,0
2019-03-22T04:16:46.567Z,0
2019-03-22T04:17:47.966Z,0
2019-03-22T04:18:49.358Z,0
2019-03-22T04:19:51.472Z,0
2019-03-22T04:20:52.863Z,0
2019-03-22T04:21:54.261Z,0
2019-03-22T04:22:55.655Z,0
2019-03-22T04:23:57.128Z,0
2019-03-22T04:24:58.397Z,0
2019-03-22T04:25:59.786Z,0
2019-03-22T04:27:01.192Z,0
2019-03-22T04:28:02.580Z,0
2019-03-22T04:29:07.769Z,0
2019-03-22T04:30:05.334Z,0
2019-03-22T04:31:06.726Z,0
2019-03-22T04:32:08.124Z,0
2019-03-22T04:33:09.511Z,0
2019-03-22T04:34:10.886Z,0
2019-03-22T04:35:12.276Z,0
2019-03-22T04:36:13.670Z,0
2019-03-22T04:37:15.058Z,0
2019-03-22T04:38:16.450Z,0
2019-03-22T04:39:17.841Z,0
2019-03-22T04:40:19.242Z,0
2019-03-22T04:41:20.680Z,0
2019-03-22T04:42:22.030Z,0
2019-03-22T04:43:23.429Z,0
2019-03-22T04:44:24.831Z,0
2019-03-22T04:45:26.211Z,0
2019-03-22T04:46:27.605Z,0
2019-03-22T04:47:28.994Z,0
2019-03-22T04:48:30.385Z,0
2019-03-22T04:49:31.774Z,4
2019-03-22T04:50:33.171Z,4
2019-03-22T04:51:34.555Z,0
2019-03-22T04:52:35.955Z,4
2019-03-22T04:53:37.327Z,4
2019-03-22T04:54:38.728Z,4
2019-03-22T04:55:40.102Z,4
2019-03-22T04:56:41.487Z,4
2019-03-22T04:57:42.877Z,4
2019-03-22T04:58:46.603Z,4
2019-03-22T04:59:45.630Z,8
2019-03-22T05:00:47.012Z,8
2019-03-22T05:01:48.404Z,8
2019-03-22T05:02:49.794Z,12
2019-03-22T05:03:51.193Z,12
2019-03-22T05:04:52.583Z,12
2019-03-22T05:05:53.971Z,12
2019-03-22T05:06:55.360Z,12
2019-03-22T05:07:56.772Z,12
2019-03-22T05:08:58.170Z,16
2019-03-22T05:09:59.562Z,20
2019-03-22T05:11:00.946Z,20
2019-03-22T05:12:02.335Z,24
2019-03-22T05:13:03.733Z,24
2019-03-22T05:14:05.133Z,24
2019-03-22T05:15:06.521Z,28
2019-03-22T05:16:07.915Z,28
2019-03-22T05:17:09.320Z,32
2019-03-22T05:18:10.713Z,40
2019-03-22T05:19:12.093Z,44
2019-03-22T05:20:13.482Z,48
2019-03-22T05:21:14.894Z,56
2019-03-22T05:22:16.288Z,60
2019-03-22T05:23:17.695Z,60
2019-03-22T05:24:19.093Z,64
2019-03-22T05:25:20.484Z,64
2019-03-22T05:26:21.893Z,64
2019-03-22T05:27:23.282Z,64
2019-03-22T05:28:24.678Z,64
2019-03-22T05:29:30.538Z,64
2019-03-22T05:30:27.427Z,68
2019-03-22T05:31:28.823Z,72
2019-03-22T05:32:30.212Z,76
2019-03-22T05:33:31.621Z,80
2019-03-22T05:34:33.020Z,76
2019-03-22T05:35:34.415Z,76
2019-03-22T05:36:35.924Z,80
2019-03-22T05:37:37.342Z,80
2019-03-22T05:38:39.498Z,88
2019-03-22T05:39:40.991Z,88
2019-03-22T05:40:42.386Z,100
2019-03-22T05:41:43.801Z,116
2019-03-22T05:42:45.203Z,124
2019-03-22T05:43:46.594Z,140
2019-03-22T05:44:48.002Z,144
2019-03-22T05:45:49.387Z,144
2019-03-22T05:46:50.785Z,144
2019-03-22T05:47:52.184Z,140
2019-03-22T05:48:53.569Z,140
2019-03-22T05:49:54.962Z,148
2019-03-22T05:50:56.388Z,156
2019-03-22T05:51:57.823Z,168
2019-03-22T05:52:59.221Z,172
2019-03-22T05:54:00.612Z,184
2019-03-22T05:55:02.011Z,200
2019-03-22T05:56:03.404Z,220
2019-03-22T05:57:12.803Z,228
2019-03-22T05:58:06.172Z,240
2019-03-22T05:59:07.574Z,244
2019-03-22T06:00:08.968Z,248
2019-03-22T06:01:10.417Z,248
2019-03-22T06:02:11.823Z,260
2019-03-22T06:03:13.218Z,272
2019-03-22T06:04:14.619Z,300
2019-03-22T06:05:16.039Z,316
2019-03-22T06:06:17.442Z,340
2019-03-22T06:07:18.853Z,356
2019-03-22T06:08:20.242Z,368
2019-03-22T06:09:21.649Z,368
2019-03-22T06:10:23.039Z,372
2019-03-22T06:11:24.460Z,380
2019-03-22T06:12:25.855Z,388
2019-03-22T06:13:27.253Z,396
2019-03-22T06:14:28.657Z,400
2019-03-22T06:15:30.065Z,408
2019-03-22T06:16:31.465Z,416
2019-03-22T06:17:32.873Z,416
2019-03-22T06:18:34.295Z,416
2019-03-22T06:19:35.726Z,408
2019-03-22T06:20:37.134Z,404
2019-03-22T06:21:38.547Z,404
2019-03-22T06:22:39.945Z,428
2019-03-22T06:23:41.358Z,468
2019-03-22T06:24:42.781Z,460
2019-03-22T06:25:44.172Z,496
2019-03-22T06:26:45.570Z,520
2019-03-22T06:27:46.984Z,532
2019-03-22T06:28:48.415Z,528
2019-03-22T06:29:54.239Z,572
2019-03-22T06:30:51.164Z,556
2019-03-22T06:31:52.548Z,536
2019-03-22T06:32:53.936Z,528
2019-03-22T06:33:55.349Z,540
2019-03-22T06:34:56.750Z,564
2019-03-22T06:35:58.147Z,596
2019-03-22T06:36:59.553Z,628
2019-03-22T06:38:00.982Z,644
2019-03-22T06:39:02.396Z,644
2019-03-22T06:40:03.787Z,636
2019-03-22T06:41:05.180Z,628
2019-03-22T06:42:06.585Z,628
2019-03-22T06:43:07.982Z,632
2019-03-22T06:44:09.371Z,636
2019-03-22T06:45:10.775Z,652
2019-03-22T06:46:12.173Z,676
2019-03-22T06:47:13.569Z,696
2019-03-22T06:48:14.977Z,704
2019-03-22T06:49:16.369Z,692
2019-03-22T06:50:17.763Z,696
2019-03-22T06:51:19.157Z,708
2019-03-22T06:52:20.565Z,708
2019-03-22T06:53:21.956Z,708
2019-03-22T06:54:31.460Z,728
2019-03-22T06:55:24.714Z,748
2019-03-22T06:56:26.116Z,772
2019-03-22T06:57:27.496Z,796
2019-03-22T06:58:28.895Z,812
2019-03-22T06:59:30.282Z,796
2019-03-22T07:00:31.669Z,784
2019-03-22T07:01:33.062Z,788
2019-03-22T07:02:34.468Z,784
2019-03-22T07:03:35.871Z,788
2019-03-22T07:04:37.257Z,808
2019-03-22T07:05:38.651Z,844
2019-03-22T07:06:40.044Z,876
2019-03-22T07:07:41.438Z,888
2019-03-22T07:08:42.843Z,876
2019-03-22T07:09:44.227Z,856
2019-03-22T07:10:45.627Z,832
2019-03-22T07:11:47.020Z,816
2019-03-22T07:12:48.407Z,808
2019-03-22T07:13:49.815Z,812
2019-03-22T07:14:51.222Z,828
2019-03-22T07:15:52.603Z,848
2019-03-22T07:16:53.993Z,860
2019-03-22T07:17:55.385Z,864
2019-03-22T07:18:56.775Z,852
2019-03-22T07:19:58.179Z,844
2019-03-22T07:20:59.571Z,836
2019-03-22T07:22:00.960Z,848
2019-03-22T07:23:02.365Z,852
2019-03-22T07:24:03.754Z,864
2019-03-22T07:25:05.141Z,876
2019-03-22T07:26:06.561Z,840
2019-03-22T07:27:07.946Z,836
2019-03-22T07:28:09.342Z,880
2019-03-22T07:29:10.737Z,884
2019-03-22T07:30:18.551Z,896
2019-03-22T07:31:13.492Z,900
2019-03-22T07:32:14.884Z,908
2019-03-22T07:33:16.285Z,908
2019-03-22T07:34:17.700Z,904
2019-03-22T07:35:19.102Z,896
2019-03-22T07:36:20.488Z,904
2019-03-22T07:37:21.885Z,944
2019-03-22T07:38:23.279Z,976
2019-03-22T07:39:24.669Z,1016
2019-03-22T07:40:26.071Z,1012
2019-03-22T07:41:27.473Z,1020
2019-03-22T07:42:28.867Z,1048
2019-03-22T07:43:30.262Z,1072
2019-03-22T07:44:31.665Z,1104
2019-03-22T07:45:33.069Z,1080
2019-03-22T07:46:34.460Z,1132
2019-03-22T07:47:35.868Z,1188
2019-03-22T07:48:37.266Z,1228
2019-03-22T07:49:38.660Z,1252
2019-03-22T07:50:40.050Z,1284
2019-03-22T07:51:41.468Z,1280
2019-03-22T07:52:42.856Z,1252
2019-03-22T07:53:44.257Z,1224
2019-03-22T07:54:45.660Z,1200
2019-03-22T07:55:47.053Z,1148
2019-03-22T07:56:48.446Z,1136
2019-03-22T07:57:49.836Z,1132
2019-03-22T07:58:51.249Z,1144
2019-03-22T07:59:52.638Z,1164
2019-03-22T08:00:54.026Z,1188
2019-03-22T08:01:55.422Z,1224
2019-03-22T08:02:56.841Z,1240
2019-03-22T08:03:58.233Z,1244
2019-03-22T08:04:59.634Z,1244
2019-03-22T08:06:01.025Z,1236
2019-03-22T08:07:02.422Z,1200
2019-03-22T08:08:03.813Z,1180
2019-03-22T08:09:05.203Z,1172
2019-03-22T08:10:06.597Z,1188
2019-03-22T08:11:07.995Z,1224
2019-03-22T08:12:09.390Z,1276
2019-03-22T08:13:10.790Z,1332
2019-03-22T08:14:12.181Z,1424
2019-03-22T08:15:13.578Z,1448
2019-03-22T08:16:14.976Z,1420
2019-03-22T08:17:16.370Z,1396
2019-03-22T08:18:17.768Z,1380
2019-03-22T08:19:19.176Z,1344
2019-03-22T08:20:20.576Z,1344
2019-03-22T08:21:22.008Z,1344
2019-03-22T08:22:23.362Z,1348
2019-03-22T08:23:24.778Z,1356
2019-03-22T08:24:26.162Z,1388
2019-03-22T08:25:27.558Z,1432
2019-03-22T08:26:28.972Z,1396
2019-03-22T08:27:30.362Z,1328
2019-03-22T08:28:31.763Z,1380
2019-03-22T08:29:33.136Z,1424
2019-03-22T08:30:43.019Z,1424
2019-03-22T08:31:35.920Z,1428
2019-03-22T08:32:37.293Z,1436
2019-03-22T08:33:38.685Z,1460
2019-03-22T08:34:40.098Z,1484
2019-03-22T08:35:41.481Z,1504
2019-03-22T08:36:42.910Z,1544
2019-03-22T08:37:52.401Z,1552
2019-03-22T08:38:45.605Z,1564
2019-03-22T08:39:47.021Z,1588
2019-03-22T08:40:48.395Z,1612
2019-03-22T08:41:49.810Z,1624
2019-03-22T08:42:51.212Z,1632
2019-03-22T08:43:52.582Z,1620
2019-03-22T08:44:54.025Z,1632
2019-03-22T08:45:55.375Z,1660
2019-03-22T08:46:56.781Z,1676
2019-03-22T08:47:58.176Z,1684
2019-03-22T08:48:59.631Z,1696
2019-03-22T08:50:00.964Z,1736
2019-03-22T08:51:02.318Z,1752
2019-03-22T08:52:03.725Z,1772
2019-03-22T08:53:05.128Z,1792
2019-03-22T08:54:06.672Z,1808
2019-03-22T08:55:07.898Z,1812
2019-03-22T08:56:09.315Z,1796
2019-03-22T08:57:10.693Z,1764
2019-03-22T08:58:12.154Z,1728
2019-03-22T08:59:13.594Z,1724
2019-03-22T09:00:14.799Z,1736
2019-03-22T09:01:16.188Z,1788
2019-03-22T09:02:17.593Z,1824
2019-03-22T09:03:19.035Z,1808
2019-03-22T09:04:20.385Z,1760
2019-03-22T09:05:21.801Z,1744
2019-03-22T09:06:23.202Z,1744
2019-03-22T09:07:24.742Z,1776
2019-03-22T09:08:25.996Z,1764
2019-03-22T09:09:27.416Z,1756
2019-03-22T09:10:28.783Z,1748
2019-03-22T09:11:30.198Z,1728
2019-03-22T09:12:31.564Z,1740
2019-03-22T09:13:32.967Z,1672
2019-03-22T09:14:34.360Z,1656
2019-03-22T09:15:40.971Z,1692
2019-03-22T09:16:37.116Z,1748
2019-03-22T09:17:38.512Z,1768
2019-03-22T09:18:39.910Z,1772
2019-03-22T09:19:41.320Z,1748
2019-03-22T09:20:42.737Z,1724
2019-03-22T09:21:44.132Z,1708
2019-03-22T09:22:45.548Z,1708
2019-03-22T09:23:46.934Z,1720
2019-03-22T09:24:48.387Z,1740
2019-03-22T09:25:49.637Z,1768
2019-03-22T09:26:51.048Z,1776
2019-03-22T09:27:52.436Z,1796
2019-03-22T09:28:53.833Z,1804
2019-03-22T09:29:55.221Z,1808
2019-03-22T09:31:09.404Z,1804
2019-03-22T09:31:57.978Z,1800
2019-03-22T09:32:59.399Z,1816
2019-03-22T09:34:00.759Z,1840
2019-03-22T09:35:02.160Z,1872
2019-03-22T09:36:03.554Z,1908
2019-03-22T09:37:04.951Z,1904
2019-03-22T09:38:12.801Z,1964
2019-03-22T09:39:07.714Z,2020
2019-03-22T09:40:09.141Z,2072
2019-03-22T09:41:10.578Z,2120
2019-03-22T09:42:11.911Z,2168
2019-03-22T09:43:13.300Z,2224
2019-03-22T09:44:14.620Z,2320
2019-03-22T09:45:16.017Z,2380
2019-03-22T09:46:17.435Z,2396
2019-03-22T09:47:18.840Z,2380
2019-03-22T09:48:20.277Z,2328
2019-03-22T09:49:21.618Z,2224
2019-03-22T09:50:23.085Z,2152
2019-03-22T09:51:24.366Z,2160
2019-03-22T09:52:25.762Z,2192
2019-03-22T09:53:30.167Z,2280
2019-03-22T09:54:28.558Z,2348
2019-03-22T09:55:29.917Z,2360
2019-03-22T09:56:31.308Z,2428
2019-03-22T09:57:32.718Z,2480
2019-03-22T09:58:34.101Z,2524
2019-03-22T09:59:35.483Z,2504
2019-03-22T10:00:36.896Z,2432
2019-03-22T10:01:38.338Z,2344
2019-03-22T10:02:39.686Z,2268
2019-03-22T10:03:42.661Z,2244
2019-03-22T10:04:42.431Z,2244
2019-03-22T10:05:43.830Z,2232
2019-03-22T10:06:45.302Z,2260
2019-03-22T10:07:46.582Z,2380
2019-03-22T10:08:48.014Z,2420
2019-03-22T10:09:49.365Z,2492
2019-03-22T10:10:50.767Z,2548
2019-03-22T10:11:52.168Z,2608
2019-03-22T10:12:53.576Z,2668
2019-03-22T10:13:54.999Z,2744
2019-03-22T10:14:56.387Z,2840
2019-03-22T10:15:57.792Z,2896
2019-03-22T10:16:59.197Z,2880
2019-03-22T10:18:00.560Z,2840
2019-03-22T10:19:01.965Z,2824
2019-03-22T10:20:03.369Z,2804
2019-03-22T10:21:04.746Z,2768
2019-03-22T10:22:06.150Z,2716
2019-03-22T10:23:07.604Z,2708
2019-03-22T10:24:08.949Z,2708
2019-03-22T10:25:10.355Z,2740
2019-03-22T10:26:11.741Z,2732
2019-03-22T10:27:13.173Z,2704
2019-03-22T10:28:14.597Z,2656
2019-03-22T10:29:15.954Z,2676
2019-03-22T10:30:17.255Z,2724
2019-03-22T10:31:18.716Z,2796
2019-03-22T10:32:20.068Z,2792
2019-03-22T10:33:22.941Z,2788
2019-03-22T10:34:22.900Z,2812
2019-03-22T10:35:26.297Z,2848
2019-03-22T10:36:25.577Z,2832
2019-03-22T10:37:27.010Z,2780
2019-03-22T10:38:31.777Z,2744
2019-03-22T10:39:29.732Z,2728
2019-03-22T10:40:31.109Z,2668
2019-03-22T10:41:32.503Z,2700
2019-03-22T10:42:33.898Z,2924
2019-03-22T10:43:35.313Z,2976
2019-03-22T10:44:39.287Z,2968
2019-03-22T10:45:38.064Z,2952
2019-03-22T10:46:39.532Z,2836
2019-03-22T10:47:40.818Z,2724
2019-03-22T10:48:42.223Z,2540
2019-03-22T10:49:43.681Z,2404
2019-03-22T10:50:45.162Z,2356
2019-03-22T10:51:56.226Z,2392
2019-03-22T10:52:48.394Z,2472
2019-03-22T10:53:49.373Z,2592
2019-03-22T10:54:50.793Z,2664
2019-03-22T10:55:52.186Z,2664
2019-03-22T10:56:53.587Z,2676
2019-03-22T10:57:55.569Z,2768
2019-03-22T10:58:56.337Z,2856
2019-03-22T10:59:57.733Z,2812
2019-03-22T11:00:59.135Z,2748
2019-03-22T11:02:03.548Z,2728
2019-03-22T11:03:01.895Z,2724
2019-03-22T11:05:04.816Z,2780
2019-03-22T11:06:06.228Z,2868
2019-03-22T11:07:07.626Z,2884
2019-03-22T11:08:09.035Z,2704
2019-03-22T11:09:10.435Z,2596
2019-03-22T11:10:13.553Z,2592
2019-03-22T11:11:13.200Z,2576
2019-03-22T11:12:14.588Z,2656
2019-03-22T11:13:15.998Z,2744
2019-03-22T11:14:17.417Z,2776
2019-03-22T11:15:18.831Z,2784
2019-03-22T11:16:20.242Z,2776
2019-03-22T11:17:21.654Z,2812
2019-03-22T11:18:23.110Z,2784
2019-03-22T11:19:24.512Z,2716
2019-03-22T11:20:25.924Z,2636
2019-03-22T11:21:27.355Z,2580
2019-03-22T11:22:28.740Z,2564
2019-03-22T11:23:30.136Z,2552
2019-03-22T11:24:31.544Z,2532
2019-03-22T11:25:32.957Z,2504
2019-03-22T11:26:34.359Z,2560
2019-03-22T11:27:35.781Z,2640
2019-03-22T11:28:37.163Z,2644
2019-03-22T11:29:38.641Z,2684
2019-03-22T11:30:40.033Z,2724
2019-03-22T11:31:41.441Z,2720
2019-03-22T11:32:42.861Z,2704
2019-03-22T11:33:44.327Z,2716
2019-03-22T11:34:45.726Z,2736
2019-03-22T11:35:47.130Z,2740
2019-03-22T11:36:48.519Z,2792
2019-03-22T11:37:49.938Z,2828
2019-03-22T11:38:51.358Z,2884
2019-03-22T11:39:52.780Z,2900
2019-03-22T11:40:54.172Z,2856
2019-03-22T11:41:55.571Z,2820
2019-03-22T11:42:56.961Z,2816
2019-03-22T11:43:59.044Z,2852
2019-03-22T11:45:00.444Z,2912
2019-03-22T11:46:01.857Z,2944
2019-03-22T11:47:03.254Z,2956
2019-03-22T11:48:04.661Z,2936
2019-03-22T11:49:06.063Z,2920
2019-03-22T11:50:07.461Z,2916
2019-03-22T11:51:08.888Z,2908
2019-03-22T11:52:10.329Z,2812
2019-03-22T11:53:11.701Z,2752
2019-03-22T11:54:13.111Z,2748
2019-03-22T11:55:14.526Z,2808
2019-03-22T11:56:15.927Z,2928
2019-03-22T11:57:17.434Z,3088
2019-03-22T11:58:18.843Z,3252
2019-03-22T11:59:20.246Z,3408
2019-03-22T12:00:21.649Z,3476
2019-03-22T12:01:23.048Z,3332
2019-03-22T12:02:24.449Z,3148
2019-03-22T12:03:25.849Z,2992
2019-03-22T12:04:27.257Z,2840
2019-03-22T12:05:28.691Z,2740
2019-03-22T12:06:30.042Z,2744
2019-03-22T12:07:31.445Z,2812
2019-03-22T12:08:32.847Z,2876
2019-03-22T12:09:34.256Z,2888
2019-03-22T12:10:35.650Z,2868
2019-03-22T12:11:37.050Z,2808
2019-03-22T12:12:38.444Z,2740
2019-03-22T12:13:39.840Z,2688
2019-03-22T12:14:41.236Z,2660
2019-03-22T12:15:42.643Z,2720
2019-03-22T12:16:44.041Z,2820
2019-03-22T12:17:45.435Z,3000
2019-03-22T12:18:46.828Z,3220
2019-03-22T12:19:48.240Z,3520
2019-03-22T12:20:49.641Z,3652
2019-03-22T12:21:51.043Z,3584
2019-03-22T12:22:52.463Z,3476
2019-03-22T12:23:53.865Z,3324
2019-03-22T12:24:55.255Z,3232
2019-03-22T12:25:56.671Z,3260
2019-03-22T12:26:58.075Z,3348
2019-03-22T12:27:59.471Z,3396
2019-03-22T12:29:00.876Z,3368
2019-03-22T12:30:02.280Z,3304
2019-03-22T12:31:03.675Z,3192
2019-03-22T12:32:05.072Z,3052
2019-03-22T12:33:06.490Z,2992
2019-03-22T12:34:07.910Z,2912
2019-03-22T12:35:09.316Z,2788
2019-03-22T12:36:10.720Z,2708
2019-03-22T12:37:12.136Z,2732
2019-03-22T12:38:13.544Z,2760
2019-03-22T12:39:14.948Z,2864
2019-03-22T12:40:16.352Z,2908
2019-03-22T12:41:17.750Z,2916
2019-03-22T12:42:19.142Z,2924
2019-03-22T12:43:20.606Z,2920
2019-03-22T12:44:22.006Z,2860
2019-03-22T12:45:23.411Z,2812
2019-03-22T12:46:24.806Z,2788
2019-03-22T12:47:26.242Z,2744
2019-03-22T12:48:27.633Z,2700
2019-03-22T12:49:29.057Z,2632
2019-03-22T12:50:30.450Z,2588
2019-03-22T12:51:31.850Z,2552
2019-03-22T12:52:33.248Z,2532
2019-03-22T12:53:34.647Z,2500
2019-03-22T12:54:36.056Z,2452
2019-03-22T12:55:37.463Z,2392
2019-03-22T12:56:38.882Z,2368
2019-03-22T12:57:40.267Z,2364
2019-03-22T12:58:41.671Z,2336
2019-03-22T12:59:43.079Z,2292
2019-03-22T13:00:44.493Z,2252
2019-03-22T13:01:45.892Z,2232
2019-03-22T13:02:47.294Z,2212
2019-03-22T13:03:48.703Z,2152
2019-03-22T13:04:50.114Z,2088
2019-03-22T13:05:51.522Z,2048
2019-03-22T13:06:53.242Z,2020
2019-03-22T13:07:54.340Z,2036
2019-03-22T13:08:55.738Z,2100
2019-03-22T13:09:57.131Z,2176
2019-03-22T13:10:58.554Z,2200
2019-03-22T13:11:59.964Z,2224
2019-03-22T13:13:01.364Z,2232
2019-03-22T13:14:02.767Z,2220
2019-03-22T13:15:04.164Z,2216
2019-03-22T13:16:05.574Z,2192
2019-03-22T13:17:06.988Z,2132
2019-03-22T13:18:08.395Z,2064
2019-03-22T13:19:10.407Z,2028
2019-03-22T13:20:11.191Z,2016
2019-03-22T13:21:12.590Z,2048
2019-03-22T13:22:14.003Z,2104
2019-03-22T13:23:15.405Z,2148
2019-03-22T13:24:16.888Z,2196
2019-03-22T13:25:18.311Z,2216
2019-03-22T13:26:19.713Z,2260
2019-03-22T13:27:21.108Z,2300
2019-03-22T13:28:22.504Z,2288
2019-03-22T13:29:23.909Z,2236
2019-03-22T13:30:25.309Z,2176
2019-03-22T13:31:26.714Z,2160
2019-03-22T13:32:28.115Z,2176
2019-03-22T13:33:29.521Z,2192
2019-03-22T13:34:30.923Z,2252
2019-03-22T13:35:32.326Z,2264
2019-03-22T13:36:33.726Z,2236
2019-03-22T13:37:36.622Z,2180
2019-03-22T13:38:37.999Z,2160
2019-03-22T13:39:39.400Z,2148
2019-03-22T13:40:41.572Z,2140
2019-03-22T13:41:42.989Z,2196
2019-03-22T13:42:44.397Z,2220
2019-03-22T13:43:45.792Z,2240
2019-03-22T13:44:47.188Z,2280
2019-03-22T13:45:48.586Z,2296
2019-03-22T13:46:50.066Z,2304
2019-03-22T13:47:51.364Z,2240
2019-03-22T13:48:52.743Z,2120
2019-03-22T13:49:54.137Z,2044
2019-03-22T13:50:55.698Z,1972
2019-03-22T13:51:57.121Z,1940
2019-03-22T13:52:58.529Z,1940
2019-03-22T13:53:59.929Z,1984
2019-03-22T13:55:01.338Z,2040
2019-03-22T13:56:02.737Z,2120
2019-03-22T13:57:04.141Z,2164
2019-03-22T13:58:05.534Z,2132
2019-03-22T13:59:06.926Z,2052
2019-03-22T14:00:08.327Z,1972
2019-03-22T14:01:09.737Z,1960
2019-03-22T14:02:11.149Z,1948
2019-03-22T14:03:12.582Z,1928
2019-03-22T14:04:13.991Z,1932
2019-03-22T14:05:15.406Z,1936
2019-03-22T14:06:16.797Z,1936
2019-03-22T14:07:18.207Z,1948
2019-03-22T14:08:19.634Z,1968
2019-03-22T14:09:21.041Z,1972
2019-03-22T14:10:22.434Z,1980
2019-03-22T14:11:23.834Z,1980
2019-03-22T14:12:25.238Z,1964
2019-03-22T14:13:26.639Z,1952
2019-03-22T14:14:28.028Z,1928
2019-03-22T14:15:29.476Z,1888